Time;durP1;ratioP1;P1;durP2;ratioP2;P2;SDS_P1;SDS_P2;PMS_P1;PMS_P2;Temp;Humidity;BMP_temperature;BMP_pressure;BME280_temperature;BME280_humidity;BME280_pressure;Samples;Min_cycle;Max_cycle;Signal;HPM_P1;HPM_P2
2021/04/18 00:01:27;;;;;;;20.02;14.57;;;9.40;87.30;;;;;;5016816;28;20118;-58
2021/04/18 00:03:53;;;;;;;19.92;14.00;;;9.30;87.30;;;;;;5019748;28;20496;-57
2021/04/18 00:06:20;;;;;;;18.73;13.40;;;9.30;87.50;;;;;;5037268;28;20479;-57
2021/04/18 00:08:46;;;;;;;20.58;14.85;;;9.20;88.20;;;;;;5016125;28;20072;-58
2021/04/18 00:11:12;;;;;;;19.48;14.82;;;9.40;87.40;;;;;;5028480;28;20041;-55
2021/04/18 00:13:38;;;;;;;21.98;14.23;;;9.30;87.30;;;;;;5023994;28;20091;-56
2021/04/18 00:16:03;;;;;;;20.80;14.23;;;9.20;87.50;;;;;;5012680;28;20374;-56
2021/04/18 00:18:29;;;;;;;17.85;13.35;;;9.30;87.30;;;;;;5031131;28;20111;-56
2021/04/18 00:20:56;;;;;;;18.83;14.15;;;9.20;87.20;;;;;;5026826;28;20034;-55
2021/04/18 00:23:22;;;;;;;20.60;14.52;;;9.20;87.30;;;;;;5011434;28;20208;-53
2021/04/18 00:25:48;;;;;;;22.15;14.80;;;9.30;87.30;;;;;;5023697;28;20123;-56
2021/04/18 00:28:13;;;;;;;18.90;13.65;;;9.30;87.50;;;;;;5018123;28;20088;-55
2021/04/18 00:30:39;;;;;;;17.95;12.98;;;9.30;87.50;;;;;;5010744;28;20018;-55
2021/04/18 00:33:05;;;;;;;19.13;14.63;;;9.30;87.80;;;;;;5017182;28;20046;-54
2021/04/18 00:35:31;;;;;;;19.50;13.82;;;9.20;87.80;;;;;;5011249;28;20034;-58
2021/04/18 00:37:56;;;;;;;17.38;12.90;;;9.30;87.90;;;;;;5017710;28;20076;-57
2021/04/18 00:40:24;;;;;;;17.48;13.20;;;9.40;87.00;;;;;;5011194;28;20087;-56
2021/04/18 00:42:51;;;;;;;20.60;13.57;;;9.40;87.20;;;;;;5018245;28;20564;-55
2021/04/18 00:45:17;;;;;;;17.30;13.82;;;9.40;86.90;;;;;;5023692;28;20481;-53
2021/04/18 00:47:45;;;;;;;18.75;14.30;;;9.50;86.90;;;;;;5018326;28;20401;-56
2021/04/18 00:50:13;;;;;;;20.52;13.77;;;9.50;86.60;;;;;;5012642;28;20033;-57
2021/04/18 00:52:39;;;;;;;18.77;13.85;;;9.40;87.30;;;;;;5023409;28;20033;-56
2021/04/18 00:55:09;;;;;;;19.48;14.05;;;9.30;87.60;;;;;;5013978;28;20390;-51
2021/04/18 00:57:35;;;;;;;19.85;14.55;;;9.40;87.50;;;;;;5022851;28;20080;-57
2021/04/18 01:00:03;;;;;;;17.15;13.45;;;9.40;87.40;;;;;;5013618;28;20042;-53
2021/04/18 01:02:29;;;;;;;19.10;14.23;;;9.40;87.30;;;;;;5022989;28;20115;-56
2021/04/18 01:04:55;;;;;;;17.27;13.68;;;9.40;87.40;;;;;;5013550;28;20034;-52
2021/04/18 01:07:21;;;;;;;21.60;14.65;;;9.50;87.00;;;;;;5014255;28;20095;-57
2021/04/18 01:09:46;;;;;;;19.02;13.90;;;9.40;87.10;;;;;;5012915;28;20109;-58
2021/04/18 01:12:12;;;;;;;18.90;13.57;;;9.40;87.10;;;;;;5023849;28;20045;-54
2021/04/18 01:14:38;;;;;;;18.13;14.68;;;9.50;86.90;;;;;;5026979;28;20104;-58
2021/04/18 01:17:03;;;;;;;17.35;13.02;;;9.40;87.10;;;;;;5015483;28;20041;-57
2021/04/18 01:19:29;;;;;;;25.02;14.65;;;9.20;88.60;;;;;;5034479;28;20060;-53
2021/04/18 01:21:54;;;;;;;17.45;14.02;;;9.30;87.90;;;;;;5027277;28;20048;-53
2021/04/18 01:24:20;;;;;;;22.02;14.32;;;9.30;87.50;;;;;;5032909;28;20087;-53
2021/04/18 01:26:46;;;;;;;17.95;13.65;;;9.40;87.10;;;;;;5017090;28;20073;-51
2021/04/18 01:29:12;;;;;;;17.42;13.88;;;9.50;86.80;;;;;;5039440;28;20040;-53
2021/04/18 01:31:37;;;;;;;22.05;15.00;;;9.40;87.50;;;;;;5019468;28;20042;-55
2021/04/18 01:34:03;;;;;;;18.13;14.02;;;9.40;86.90;;;;;;5031266;28;20509;-54
2021/04/18 01:36:29;;;;;;;19.85;14.13;;;9.50;86.70;;;;;;5014475;28;20117;-58
2021/04/18 01:38:55;;;;;;;20.02;14.00;;;9.50;86.70;;;;;;5041483;28;20026;-58
2021/04/18 01:41:21;;;;;;;15.77;12.73;;;9.40;87.30;;;;;;5024484;28;20026;-57
2021/04/18 01:43:46;;;;;;;19.00;14.43;;;9.40;87.40;;;;;;5034423;28;20033;-56
2021/04/18 01:46:12;;;;;;;17.42;13.80;;;9.50;87.40;;;;;;5025836;28;20045;-56
2021/04/18 01:48:38;;;;;;;18.15;12.88;;;9.40;87.50;;;;;;5032509;28;20033;-55
2021/04/18 01:51:06;;;;;;;19.27;12.88;;;9.30;87.70;;;;;;5021181;28;20095;-56
2021/04/18 01:53:32;;;;;;;29.45;18.08;;;9.30;88.00;;;;;;5023977;28;20060;-55
2021/04/18 01:55:58;;;;;;;23.80;13.55;;;9.30;87.90;;;;;;5018464;28;20485;-57
2021/04/18 01:58:24;;;;;;;19.27;14.02;;;9.40;88.00;;;;;;5044187;28;20497;-54
2021/04/18 02:00:50;;;;;;;17.77;13.55;;;9.30;88.30;;;;;;5017426;28;20030;-55
2021/04/18 02:03:16;;;;;;;19.25;13.20;;;9.20;88.40;;;;;;5037109;28;20029;-54
2021/04/18 02:05:41;;;;;;;21.48;14.52;;;9.20;88.40;;;;;;5013967;28;20167;-55
2021/04/18 02:08:07;;;;;;;20.10;13.65;;;9.20;88.70;;;;;;5037915;28;20540;-58
2021/04/18 02:10:32;;;;;;;23.02;14.50;;;9.20;89.00;;;;;;5026509;28;20512;-55
2021/04/18 02:12:58;;;;;;;19.63;13.95;;;9.20;89.10;;;;;;5033618;28;20033;-56
2021/04/18 02:15:24;;;;;;;18.42;13.93;;;9.20;89.00;;;;;;5012826;28;20497;-56
2021/04/18 02:17:49;;;;;;;19.80;13.07;;;9.20;88.60;;;;;;5031092;28;20460;-56
2021/04/18 02:20:16;;;;;;;18.13;13.38;;;9.30;88.50;;;;;;5025015;28;20493;-59
2021/04/18 02:22:44;;;;;;;18.42;14.18;;;9.20;88.50;;;;;;5023266;28;20041;-56
2021/04/18 02:25:10;;;;;;;24.95;14.43;;;9.20;88.70;;;;;;5013939;28;20553;-58
2021/04/18 02:27:36;;;;;;;15.10;12.45;;;9.20;88.60;;;;;;5013936;28;20055;-56
2021/04/18 02:30:04;;;;;;;15.38;12.38;;;9.30;88.80;;;;;;5013981;28;20038;-55
2021/04/18 02:32:29;;;;;;;18.98;12.90;;;9.30;88.70;;;;;;5019257;28;20060;-56
2021/04/18 02:34:55;;;;;;;16.52;13.63;;;9.20;88.80;;;;;;5011243;28;20050;-56
2021/04/18 02:37:21;;;;;;;20.33;13.07;;;9.20;88.80;;;;;;5032987;28;20057;-53
2021/04/18 02:39:46;;;;;;;17.58;13.15;;;9.20;89.00;;;;;;5021826;28;20042;-54
2021/04/18 02:42:12;;;;;;;19.23;14.25;;;9.20;89.30;;;;;;5037590;28;20037;-54
2021/04/18 02:44:38;;;;;;;21.67;14.98;;;9.10;89.70;;;;;;5013472;28;20029;-55
2021/04/18 02:47:04;;;;;;;19.25;14.55;;;9.00;89.90;;;;;;5019887;28;20035;-55
2021/04/18 02:49:29;;;;;;;18.58;13.73;;;9.10;89.70;;;;;;5012994;28;20042;-54
2021/04/18 02:51:55;;;;;;;23.02;14.63;;;9.10;89.80;;;;;;5019486;28;20033;-52
2021/04/18 02:54:21;;;;;;;17.00;12.98;;;9.10;89.80;;;;;;5014553;28;20033;-51
2021/04/18 02:56:46;;;;;;;22.75;13.95;;;9.10;89.80;;;;;;5014604;28;20049;-52
2021/04/18 02:59:12;;;;;;;18.50;13.05;;;9.10;89.60;;;;;;5018359;28;20068;-57
2021/04/18 03:01:38;;;;;;;18.38;13.25;;;9.10;89.70;;;;;;5012975;28;20506;-54
2021/04/18 03:04:05;;;;;;;18.40;12.60;;;9.20;89.60;;;;;;5034455;28;20485;-54
2021/04/18 03:06:30;;;;;;;18.88;14.55;;;9.20;89.30;;;;;;5013088;28;20030;-55
2021/04/18 03:08:56;;;;;;;26.67;15.75;;;9.20;89.50;;;;;;5020235;28;20046;-54
2021/04/18 03:11:22;;;;;;;21.70;15.50;;;9.20;89.80;;;;;;5013786;28;20114;-53
2021/04/18 03:13:48;;;;;;;24.63;15.07;;;9.10;89.70;;;;;;5032605;28;20026;-50
2021/04/18 03:16:13;;;;;;;22.50;16.10;;;9.10;90.10;;;;;;5012676;28;20042;-55
2021/04/18 03:18:39;;;;;;;23.77;14.07;;;9.10;90.10;;;;;;5028656;28;20461;-58
2021/04/18 03:21:05;;;;;;;21.90;14.18;;;9.10;90.20;;;;;;5029760;28;20400;-58
2021/04/18 03:23:31;;;;;;;18.52;14.20;;;9.00;90.20;;;;;;5037824;28;20037;-52
2021/04/18 03:25:57;;;;;;;23.88;13.55;;;9.00;90.40;;;;;;5017459;28;20044;-52
2021/04/18 03:28:23;;;;;;;19.02;13.82;;;8.90;90.40;;;;;;5033812;28;20040;-53
2021/04/18 03:30:48;;;;;;;19.95;13.50;;;8.90;90.60;;;;;;5012049;28;20516;-56
2021/04/18 03:33:14;;;;;;;21.60;14.00;;;8.90;90.70;;;;;;5020928;28;20049;-54
2021/04/18 03:35:40;;;;;;;21.95;14.20;;;8.90;90.80;;;;;;5012879;28;20030;-56
2021/04/18 03:38:09;;;;;;;21.08;14.18;;;8.80;90.90;;;;;;5024141;28;20025;-58
2021/04/18 03:40:34;;;;;;;23.25;14.15;;;8.80;91.10;;;;;;5016461;28;20041;-57
2021/04/18 03:43:00;;;;;;;18.33;14.88;;;8.70;91.10;;;;;;5020905;28;20045;-59
2021/04/18 03:45:25;;;;;;;19.05;13.85;;;8.80;91.10;;;;;;5020301;28;20405;-56
2021/04/18 03:47:51;;;;;;;20.15;14.07;;;8.90;91.10;;;;;;5017404;28;20042;-53
2021/04/18 03:50:17;;;;;;;22.45;14.52;;;8.90;91.40;;;;;;5023747;28;20045;-51
2021/04/18 03:52:43;;;;;;;20.10;14.52;;;8.80;91.30;;;;;;5018782;28;20038;-56
2021/04/18 03:55:10;;;;;;;20.35;14.63;;;8.80;91.20;;;;;;5020887;28;20057;-56
2021/04/18 03:57:35;;;;;;;17.80;13.93;;;8.80;91.30;;;;;;5010368;28;20429;-54
2021/04/18 04:00:01;;;;;;;20.80;13.73;;;8.80;91.30;;;;;;5030411;28;20033;-51
2021/04/18 04:02:27;;;;;;;18.80;14.13;;;8.70;91.70;;;;;;5012543;28;20481;-53
2021/04/18 04:04:53;;;;;;;24.17;15.73;;;8.70;91.70;;;;;;5031659;28;20061;-55
2021/04/18 04:07:18;;;;;;;26.58;15.15;;;8.70;91.70;;;;;;5012559;28;20084;-56
2021/04/18 04:09:44;;;;;;;23.63;14.65;;;8.60;91.80;;;;;;5039103;28;20037;-54
2021/04/18 04:12:09;;;;;;;19.30;13.93;;;8.60;92.00;;;;;;5027840;28;20037;-52
2021/04/18 04:14:35;;;;;;;22.52;14.40;;;8.60;92.00;;;;;;5044685;28;20044;-54
2021/04/18 04:17:01;;;;;;;20.88;15.55;;;8.50;92.10;;;;;;5012189;28;20033;-55
2021/04/18 04:19:26;;;;;;;24.38;16.30;;;8.60;92.10;;;;;;5030218;28;20397;-55
2021/04/18 04:21:52;;;;;;;25.00;16.42;;;8.60;92.10;;;;;;5030032;28;20064;-57
2021/04/18 04:24:17;;;;;;;22.08;16.58;;;8.60;92.30;;;;;;5040208;28;20047;-54
2021/04/18 04:26:43;;;;;;;24.83;16.92;;;8.50;92.50;;;;;;5020437;28;20077;-54
2021/04/18 04:29:11;;;;;;;28.15;18.30;;;8.60;92.60;;;;;;5016061;28;20085;-56
2021/04/18 04:31:36;;;;;;;25.50;17.67;;;8.60;92.70;;;;;;5015626;28;20109;-55
2021/04/18 04:34:02;;;;;;;33.13;18.88;;;8.60;92.80;;;;;;5016701;28;20117;-54
2021/04/18 04:36:27;;;;;;;27.73;19.23;;;8.60;92.90;;;;;;5014444;28;20057;-57
2021/04/18 04:38:54;;;;;;;33.22;21.88;;;8.60;93.20;;;;;;5017057;28;20034;-55
2021/04/18 04:41:19;;;;;;;28.55;20.88;;;8.60;93.30;;;;;;5015390;28;20045;-53
2021/04/18 04:43:46;;;;;;;28.73;21.13;;;8.70;93.40;;;;;;5016792;28;20420;-57
2021/04/18 04:46:12;;;;;;;32.05;22.00;;;8.70;93.40;;;;;;5015487;28;20041;-55
2021/04/18 04:48:38;;;;;;;32.97;23.67;;;8.80;93.20;;;;;;5029478;28;20037;-56
2021/04/18 04:51:04;;;;;;;39.53;23.60;;;8.80;93.10;;;;;;5013992;28;20034;-55
2021/04/18 04:53:30;;;;;;;36.13;22.60;;;8.90;93.00;;;;;;5015578;28;20018;-54
2021/04/18 04:55:55;;;;;;;40.88;26.17;;;8.90;93.10;;;;;;5034139;28;20485;-53
2021/04/18 04:58:21;;;;;;;32.15;22.45;;;8.90;93.20;;;;;;5033749;28;20047;-52
2021/04/18 05:00:46;;;;;;;33.17;22.15;;;8.90;93.10;;;;;;5021076;28;20037;-58
2021/04/18 05:03:12;;;;;;;30.40;21.60;;;8.90;93.10;;;;;;5017330;28;20037;-59
2021/04/18 05:05:38;;;;;;;37.83;23.75;;;8.90;93.10;;;;;;5030335;28;20108;-55
2021/04/18 05:08:04;;;;;;;33.35;22.83;;;8.90;93.20;;;;;;5029379;28;20385;-56
2021/04/18 05:10:29;;;;;;;33.75;23.95;;;8.80;93.20;;;;;;5016974;28;20041;-58
2021/04/18 05:12:55;;;;;;;35.63;24.10;;;8.80;93.20;;;;;;5029141;28;20086;-55
2021/04/18 05:15:22;;;;;;;33.95;23.73;;;8.80;93.20;;;;;;5026461;28;20116;-56
2021/04/18 05:17:49;;;;;;;37.30;25.00;;;8.90;93.20;;;;;;5014649;28;20037;-57
2021/04/18 05:20:15;;;;;;;33.60;24.75;;;8.90;93.30;;;;;;5028282;28;20413;-56
2021/04/18 05:22:41;;;;;;;38.50;26.40;;;8.90;93.20;;;;;;5024077;28;20116;-55
2021/04/18 05:25:07;;;;;;;38.58;26.27;;;9.00;93.00;;;;;;5029454;28;20520;-54
2021/04/18 05:27:33;;;;;;;39.72;26.42;;;8.90;93.10;;;;;;5015001;28;20541;-52
2021/04/18 05:29:58;;;;;;;43.78;29.23;;;8.90;93.30;;;;;;5041372;28;20128;-55
2021/04/18 05:32:24;;;;;;;40.58;27.45;;;8.80;93.50;;;;;;5014423;28;20030;-56
2021/04/18 05:34:50;;;;;;;43.97;26.40;;;8.70;93.70;;;;;;5027404;28;20059;-55
2021/04/18 05:37:15;;;;;;;44.40;29.65;;;8.70;93.80;;;;;;5015614;28;20142;-57
2021/04/18 05:39:41;;;;;;;42.70;27.80;;;8.60;93.90;;;;;;5034450;28;20044;-54
2021/04/18 05:42:07;;;;;;;52.28;28.63;;;8.70;94.00;;;;;;5021400;28;20483;-58
2021/04/18 05:44:32;;;;;;;41.03;27.40;;;8.70;93.90;;;;;;5031577;28;20043;-57
2021/04/18 05:46:58;;;;;;;47.33;26.33;;;8.80;93.80;;;;;;5031896;28;20112;-55
2021/04/18 05:49:24;;;;;;;52.55;28.35;;;8.90;93.60;;;;;;5030321;28;20037;-57
2021/04/18 05:51:49;;;;;;;50.40;30.52;;;8.90;93.50;;;;;;5017650;28;20068;-55
2021/04/18 05:54:15;;;;;;;43.45;27.60;;;8.90;93.60;;;;;;5021877;28;20039;-56
2021/04/18 05:56:40;;;;;;;47.47;30.48;;;8.80;93.70;;;;;;5014324;28;20034;-58
2021/04/18 05:59:06;;;;;;;50.80;30.65;;;8.80;93.70;;;;;;5017264;28;20048;-52
2021/04/18 06:01:33;;;;;;;51.97;32.45;;;8.80;93.70;;;;;;5014428;28;20034;-54
2021/04/18 06:03:59;;;;;;;50.05;32.05;;;8.70;93.90;;;;;;5015720;28;20061;-55
2021/04/18 06:06:25;;;;;;;43.90;29.77;;;8.70;94.00;;;;;;5016320;28;20030;-52
2021/04/18 06:08:51;;;;;;;41.45;25.83;;;8.70;93.90;;;;;;5029560;28;20045;-54
2021/04/18 06:11:17;;;;;;;37.80;25.38;;;8.80;93.70;;;;;;5032735;28;20033;-54
2021/04/18 06:13:42;;;;;;;42.65;26.77;;;8.80;93.50;;;;;;5027030;28;20034;-56
2021/04/18 06:16:08;;;;;;;40.00;28.27;;;8.90;93.30;;;;;;5023554;28;20468;-57
2021/04/18 06:18:34;;;;;;;41.70;29.13;;;8.90;93.20;;;;;;5013277;28;20029;-55
2021/04/18 06:21:00;;;;;;;42.22;27.73;;;8.80;93.30;;;;;;5034473;28;20048;-52
2021/04/18 06:23:25;;;;;;;42.22;28.70;;;8.80;93.40;;;;;;5018664;28;20049;-57
2021/04/18 06:25:51;;;;;;;41.35;27.75;;;8.80;93.60;;;;;;5035300;28;20045;-56
2021/04/18 06:28:17;;;;;;;35.00;25.63;;;8.70;93.50;;;;;;5027514;28;20041;-56
2021/04/18 06:30:43;;;;;;;37.67;26.40;;;8.70;93.60;;;;;;5031595;28;20401;-56
2021/04/18 06:33:09;;;;;;;32.55;23.92;;;8.70;93.50;;;;;;5015094;28;20045;-56
2021/04/18 06:35:34;;;;;;;37.03;25.90;;;8.70;93.60;;;;;;5033584;28;20044;-55
2021/04/18 06:38:00;;;;;;;31.90;24.88;;;8.70;93.60;;;;;;5020028;28;20033;-58
2021/04/18 06:40:26;;;;;;;37.05;25.25;;;8.70;93.40;;;;;;5013858;28;20049;-54
2021/04/18 06:42:54;;;;;;;37.35;26.92;;;8.70;93.40;;;;;;5017334;28;20036;-57
2021/04/18 06:45:21;;;;;;;40.03;25.50;;;8.60;93.30;;;;;;5020274;28;20065;-58
2021/04/18 06:47:47;;;;;;;38.63;26.95;;;8.70;93.10;;;;;;5025421;28;20030;-57
2021/04/18 06:50:13;;;;;;;32.97;25.63;;;8.70;93.10;;;;;;5015115;28;20036;-56
2021/04/18 06:52:38;;;;;;;45.53;27.25;;;8.80;93.10;;;;;;5002599;28;20398;-59
2021/04/18 06:55:07;;;;;;;35.38;25.73;;;8.70;93.00;;;;;;5016738;28;20033;-57
2021/04/18 06:57:33;;;;;;;35.47;26.35;;;8.70;93.10;;;;;;5022819;28;20100;-57
2021/04/18 06:59:59;;;;;;;40.92;27.95;;;8.80;93.00;;;;;;5015414;28;20096;-56
2021/04/18 07:02:26;;;;;;;34.80;26.10;;;8.90;92.90;;;;;;5039685;28;20481;-58
2021/04/18 07:04:57;;;;;;;36.22;28.33;;;8.90;92.80;;;;;;5024457;28;20116;-58
2021/04/18 07:07:31;;;;;;;35.50;26.20;;;8.70;93.20;;;;;;5013064;28;20116;-58
2021/04/18 07:09:57;;;;;;;35.28;26.50;;;8.70;93.40;;;;;;5026855;28;20041;-55
2021/04/18 07:12:31;;;;;;;37.20;26.35;;;8.70;93.40;;;;;;5040368;28;20098;-56
2021/04/18 07:14:58;;;;;;;38.25;27.02;;;8.70;93.30;;;;;;5024761;28;20033;-57
2021/04/18 07:17:24;;;;;;;46.63;33.28;;;8.80;93.10;;;;;;5028460;28;20037;-57
2021/04/18 07:20:06;;;;;;;51.13;35.25;;;8.80;93.10;;;;;;5028835;28;20041;-57
2021/04/18 07:22:31;;;;;;;49.90;36.45;;;8.80;93.10;;;;;;5030432;28;20025;-58
2021/04/18 07:25:01;;;;;;;48.28;33.65;;;8.80;93.30;;;;;;5013358;28;20048;-55
2021/04/18 07:27:47;;;;;;;51.40;36.00;;;8.80;93.40;;;;;;5029856;28;20036;-59
2021/04/18 07:30:19;;;;;;;47.80;33.83;;;9.00;93.00;;;;;;5030468;28;20025;-55
2021/04/18 07:32:45;;;;;;;53.47;36.75;;;9.00;93.20;;;;;;5031587;28;20057;-57
2021/04/18 07:35:32;;;;;;;64.35;41.58;;;9.00;93.10;;;;;;5031530;28;20159;-55
2021/04/18 07:38:20;;;;;;;61.85;41.58;;;9.00;92.90;;;;;;5032063;28;20056;-54
2021/04/18 07:40:48;;;;;;;72.57;44.65;;;9.10;92.90;;;;;;5029310;28;20131;-58
2021/04/18 07:43:15;;;;;;;56.15;39.03;;;9.10;93.10;;;;;;5032624;28;20643;-56
2021/04/18 07:45:43;;;;;;;61.17;41.47;;;9.20;92.80;;;;;;5031455;28;20472;-56
2021/04/18 07:48:13;;;;;;;55.03;39.10;;;9.20;92.80;;;;;;5033978;28;20031;-57
2021/04/18 07:50:42;;;;;;;40.47;29.85;;;9.20;92.70;;;;;;5030950;28;20443;-55
2021/04/18 07:53:08;;;;;;;42.40;29.98;;;9.20;92.40;;;;;;5031968;28;20041;-58
2021/04/18 07:55:35;;;;;;;37.17;27.95;;;9.20;92.60;;;;;;5031434;28;20043;-54
2021/04/18 07:58:04;;;;;;;42.13;28.15;;;9.30;92.70;;;;;;5030834;28;20044;-55
2021/04/18 08:00:30;;;;;;;36.47;25.58;;;9.40;92.40;;;;;;5028440;28;20030;-55
2021/04/18 08:02:56;;;;;;;39.20;28.00;;;9.40;92.40;;;;;;5030497;28;20120;-56
2021/04/18 08:05:25;;;;;;;35.20;26.42;;;9.40;92.30;;;;;;5029174;28;20772;-57
2021/04/18 08:08:12;;;;;;;38.10;27.17;;;9.30;92.70;;;;;;5031124;28;20044;-54
2021/04/18 08:10:48;;;;;;;36.50;26.83;;;9.30;92.60;;;;;;5023546;28;20092;-56
2021/04/18 08:13:21;;;;;;;33.25;25.77;;;9.40;92.90;;;;;;5027706;28;20049;-55
2021/04/18 08:15:52;;;;;;;30.20;23.50;;;9.60;92.60;;;;;;5032445;28;20564;-57
2021/04/18 08:18:37;;;;;;;30.02;22.17;;;9.80;92.10;;;;;;5030114;28;20040;-57
2021/04/18 08:21:22;;;;;;;28.95;20.80;;;10.10;91.30;;;;;;5029807;28;20760;-55
2021/04/18 08:23:48;;;;;;;22.58;17.52;;;10.00;91.10;;;;;;5041517;28;20041;-55
2021/04/18 08:26:17;;;;;;;25.23;19.65;;;10.00;91.00;;;;;;5024822;28;20111;-55
2021/04/18 08:28:52;;;;;;;32.72;23.77;;;10.00;90.90;;;;;;5029697;28;20029;-58
2021/04/18 08:31:18;;;;;;;;;;;9.90;91.10;;;;;;5031235;28;20035;-56
2021/04/18 08:33:46;;;;;;;29.00;18.77;;;9.90;91.60;;;;;;5032938;28;19920;-57
2021/04/18 08:36:26;;;;;;;23.63;17.40;;;10.10;92.00;;;;;;5029404;28;20057;-57
2021/04/18 08:39:01;;;;;;;25.10;18.30;;;10.30;91.00;;;;;;5029755;28;20037;-56
2021/04/18 08:41:43;;;;;;;24.67;19.42;;;10.30;91.10;;;;;;5028481;28;20064;-58
2021/04/18 08:44:30;;;;;;;20.88;17.23;;;10.50;90.40;;;;;;5027015;28;20388;-58
2021/04/18 08:47:09;;;;;;;26.25;20.52;;;10.50;90.10;;;;;;5029875;28;20117;-56
2021/04/18 08:49:42;;;;;;;23.65;19.55;;;10.30;90.50;;;;;;5030390;28;20570;-57
2021/04/18 08:52:31;;;;;;;27.02;20.33;;;10.20;90.50;;;;;;5026635;28;20052;-58
2021/04/18 08:55:01;;;;;;;32.05;20.45;;;10.30;90.40;;;;;;5028051;28;20393;-58
2021/04/18 08:57:29;;;;;;;28.73;21.58;;;10.30;90.60;;;;;;5030916;28;20036;-58
2021/04/18 09:00:00;;;;;;;29.83;22.05;;;10.00;91.20;;;;;;5034374;28;20385;-58
2021/04/18 09:02:29;;;;;;;30.48;20.63;;;10.00;91.10;;;;;;5028652;28;20500;-58
2021/04/18 09:04:58;;;;;;;30.35;22.08;;;9.90;91.10;;;;;;5030626;28;20405;-59
2021/04/18 09:07:29;;;;;;;28.63;21.05;;;9.80;91.30;;;;;;5034089;28;20033;-57
2021/04/18 09:09:59;;;;;;;33.90;22.33;;;9.60;91.50;;;;;;5026445;28;20034;-58
2021/04/18 09:12:26;;;;;;;29.13;22.15;;;9.60;91.50;;;;;;5033200;28;20120;-60
2021/04/18 09:14:52;;;;;;;28.35;20.58;;;9.70;91.50;;;;;;5035070;28;20032;-54
2021/04/18 09:17:26;;;;;;;31.10;22.63;;;9.70;91.50;;;;;;5031923;28;20038;-56
2021/04/18 09:19:54;;;;;;;32.70;22.98;;;9.70;91.30;;;;;;5032588;28;20037;-57
2021/04/18 09:22:21;;;;;;;31.10;23.05;;;9.80;91.30;;;;;;5033474;28;20059;-57
2021/04/18 09:24:52;;;;;;;32.03;22.83;;;9.80;91.30;;;;;;5034956;28;20041;-57
2021/04/18 09:27:25;;;;;;;31.98;23.83;;;9.80;91.30;;;;;;5031889;28;20389;-54
2021/04/18 09:29:57;;;;;;;33.78;23.35;;;9.70;91.70;;;;;;5033917;28;20132;-57
2021/04/18 09:32:27;;;;;;;32.28;24.92;;;9.60;91.80;;;;;;5033344;28;20521;-59
2021/04/18 09:34:54;;;;;;;41.60;27.95;;;9.60;91.80;;;;;;5034115;28;20037;-58
2021/04/18 09:37:33;;;;;;;35.90;26.02;;;9.60;91.90;;;;;;5033518;28;20057;-59
2021/04/18 09:40:11;;;;;;;35.20;26.27;;;9.70;91.90;;;;;;5033052;28;20531;-57
2021/04/18 09:42:42;;;;;;;44.00;28.20;;;9.60;92.00;;;;;;5032965;28;20033;-57
2021/04/18 09:45:12;;;;;;;38.08;27.15;;;9.70;92.10;;;;;;5034429;28;20036;-55
2021/04/18 09:47:38;;;;;;;41.45;27.77;;;9.60;92.20;;;;;;5032282;28;20056;-58
2021/04/18 09:50:07;;;;;;;41.63;26.58;;;9.60;92.30;;;;;;5041242;28;20110;-56
2021/04/18 09:52:39;;;;;;;41.55;27.58;;;9.60;92.40;;;;;;5037851;28;20045;-58
2021/04/18 09:55:23;;;;;;;41.33;26.60;;;9.60;92.40;;;;;;5039103;28;20057;-57
2021/04/18 09:57:59;;;;;;;44.17;27.50;;;9.50;92.50;;;;;;5020091;28;20029;-58
2021/04/18 10:00:28;;;;;;;39.90;26.73;;;9.60;92.50;;;;;;5045557;28;20025;-58
2021/04/18 10:02:57;;;;;;;41.38;27.67;;;9.60;92.50;;;;;;5023179;28;20025;-58
2021/04/18 10:05:24;;;;;;;45.13;28.55;;;9.50;92.40;;;;;;5028223;28;20117;-59
2021/04/18 10:07:50;;;;;;;46.08;29.90;;;9.60;92.50;;;;;;5017544;28;20112;-57
2021/04/18 10:10:32;;;;;;;51.28;31.02;;;9.60;92.50;;;;;;5033092;28;20041;-58
2021/04/18 10:13:00;;;;;;;53.75;30.38;;;9.40;92.90;;;;;;5032392;28;20029;-58
2021/04/18 10:15:26;;;;;;;45.28;30.55;;;9.50;92.80;;;;;;5014390;28;20088;-58
2021/04/18 10:17:52;;;;;;;43.00;29.27;;;9.40;92.90;;;;;;5033276;28;20057;-57
2021/04/18 10:20:27;;;;;;;42.47;28.63;;;9.40;93.00;;;;;;5026781;28;20493;-55
2021/04/18 10:23:04;;;;;;;42.00;28.83;;;9.50;92.80;;;;;;5035307;28;20033;-58
2021/04/18 10:25:30;;;;;;;49.60;30.52;;;9.40;92.90;;;;;;5028867;28;20505;-58
2021/04/18 10:27:55;;;;;;;51.70;30.05;;;9.40;92.90;;;;;;5042221;28;20064;-56
2021/04/18 10:30:21;;;;;;;47.58;29.70;;;9.40;92.80;;;;;;5019332;28;20112;-58
2021/04/18 10:32:47;;;;;;;46.15;30.42;;;9.30;93.00;;;;;;5033414;28;20030;-57
2021/04/18 10:35:12;;;;;;;47.78;30.48;;;9.20;93.30;;;;;;5015296;28;20044;-58
2021/04/18 10:37:38;;;;;;;45.85;29.63;;;9.20;93.40;;;;;;5026079;28;20034;-61
2021/04/18 10:40:04;;;;;;;46.00;30.75;;;9.20;93.10;;;;;;5013091;28;20513;-59
2021/04/18 10:42:30;;;;;;;44.97;28.60;;;9.20;93.00;;;;;;5012476;28;20096;-56
2021/04/18 10:44:55;;;;;;;40.30;27.33;;;9.20;92.90;;;;;;5030311;28;20861;-58
2021/04/18 10:47:21;;;;;;;40.60;28.52;;;9.20;93.00;;;;;;5013014;28;20033;-56
2021/04/18 10:49:49;;;;;;;45.00;28.88;;;9.20;92.80;;;;;;5012935;28;20034;-58
2021/04/18 10:52:15;;;;;;;41.15;28.48;;;9.10;93.10;;;;;;5026263;28;20087;-59
2021/04/18 10:54:40;;;;;;;37.10;26.95;;;9.00;93.00;;;;;;5013017;28;20089;-57
2021/04/18 10:57:07;;;;;;;41.78;27.92;;;9.00;93.10;;;;;;5013715;28;20044;-55
2021/04/18 10:59:33;;;;;;;42.97;28.38;;;9.10;93.20;;;;;;5016523;28;20056;-58
2021/04/18 11:01:59;;;;;;;41.20;28.70;;;9.20;92.80;;;;;;5013333;28;20505;-56
2021/04/18 11:04:24;;;;;;;38.60;25.50;;;9.10;92.80;;;;;;5012565;28;20700;-54
2021/04/18 11:06:50;;;;;;;42.25;28.75;;;9.00;92.90;;;;;;5013105;28;20130;-58
2021/04/18 11:09:16;;;;;;;43.97;28.27;;;9.10;93.00;;;;;;5010462;28;20113;-58
2021/04/18 11:11:41;;;;;;;46.60;29.60;;;9.10;92.80;;;;;;5028836;28;20045;-57
2021/04/18 11:14:07;;;;;;;50.95;29.20;;;9.10;93.10;;;;;;5030973;28;20033;-56
2021/04/18 11:16:34;;;;;;;49.60;30.83;;;9.00;93.10;;;;;;5033011;28;20037;-59
2021/04/18 11:19:00;;;;;;;49.83;29.75;;;9.00;93.40;;;;;;5035527;28;20044;-59
2021/04/18 11:21:26;;;;;;;47.97;31.20;;;8.90;93.50;;;;;;5038544;28;20575;-55
2021/04/18 11:23:55;;;;;;;51.45;31.30;;;8.90;93.70;;;;;;5035604;28;20041;-59
2021/04/18 11:26:23;;;;;;;48.42;29.85;;;9.00;93.90;;;;;;5030862;28;20037;-56
2021/04/18 11:28:48;;;;;;;47.83;30.00;;;9.10;93.80;;;;;;5035459;28;20048;-60
2021/04/18 11:31:15;;;;;;;47.50;30.60;;;9.20;93.70;;;;;;5029892;28;20498;-56
2021/04/18 11:33:41;;;;;;;51.03;30.92;;;9.10;93.50;;;;;;5031525;28;20032;-59
2021/04/18 11:36:07;;;;;;;42.40;28.73;;;9.00;94.00;;;;;;5031870;28;20033;-59
2021/04/18 11:38:33;;;;;;;43.10;29.30;;;9.00;93.70;;;;;;5031510;28;20037;-57
2021/04/18 11:40:58;;;;;;;42.08;28.00;;;9.00;94.00;;;;;;5030118;28;20499;-56
2021/04/18 11:43:24;;;;;;;39.80;26.95;;;9.00;94.10;;;;;;5030488;28;20044;-57
2021/04/18 11:45:50;;;;;;;42.05;28.23;;;9.10;93.80;;;;;;5030427;28;20045;-55
2021/04/18 11:48:16;;;;;;;31.55;23.67;;;9.00;93.90;;;;;;5031082;28;20374;-61
2021/04/18 11:50:41;;;;;;;34.78;23.55;;;8.90;93.70;;;;;;5034381;28;20045;-61
2021/04/18 11:53:08;;;;;;;31.92;23.88;;;8.90;93.90;;;;;;5036631;28;20111;-62
2021/04/18 11:55:36;;;;;;;33.33;22.05;;;9.00;93.80;;;;;;5033861;28;20029;-63
2021/04/18 11:58:02;;;;;;;27.70;21.60;;;9.00;93.60;;;;;;5028435;28;20033;-62
2021/04/18 12:00:28;;;;;;;34.53;21.98;;;9.00;93.70;;;;;;5021299;28;20053;-64
2021/04/18 12:02:53;;;;;;;26.55;19.38;;;9.00;93.90;;;;;;5013512;28;20109;-62
2021/04/18 12:05:19;;;;;;;25.45;17.70;;;9.00;93.60;;;;;;5042515;28;20045;-61
2021/04/18 12:07:45;;;;;;;24.63;18.77;;;9.10;93.50;;;;;;5039221;28;20489;-61
2021/04/18 12:10:12;;;;;;;23.70;18.55;;;9.20;93.20;;;;;;5035664;28;20030;-62
2021/04/18 12:12:39;;;;;;;23.08;18.42;;;9.00;93.50;;;;;;5024463;28;20083;-63
2021/04/18 12:15:07;;;;;;;23.92;18.67;;;9.00;93.60;;;;;;5038402;28;20034;-61
2021/04/18 12:17:34;;;;;;;23.20;17.38;;;9.10;93.70;;;;;;5018058;28;20866;-60
2021/04/18 12:20:00;;;;;;;22.00;16.75;;;9.20;93.70;;;;;;5029647;28;20183;-63
2021/04/18 12:22:25;;;;;;;22.70;15.70;;;9.10;93.70;;;;;;5026861;28;20456;-59
2021/04/18 12:24:51;;;;;;;25.70;16.15;;;9.30;93.30;;;;;;5017636;28;20037;-60
2021/04/18 12:27:16;;;;;;;18.83;15.10;;;9.30;93.30;;;;;;5039830;28;20045;-60
2021/04/18 12:29:42;;;;;;;18.42;14.45;;;9.30;93.50;;;;;;5045432;28;20062;-61
2021/04/18 12:32:08;;;;;;;19.83;15.07;;;9.20;93.60;;;;;;5019815;28;20119;-62
2021/04/18 12:34:33;;;;;;;17.67;13.73;;;9.20;93.80;;;;;;5044231;28;20056;-60
2021/04/18 12:36:59;;;;;;;17.65;13.30;;;9.40;93.50;;;;;;5032882;28;20041;-60